TimeEST,TemperatureF,Dew PointF,Humidity,Sea Level PressureIn,VisibilityMPH,Wind Direction,Wind SpeedMPH,Gust SpeedMPH,PrecipitationIn,Events,Conditions,WindDirDegrees,DateUTC
12:53 AM,12.9,3.9,67,30.48,10.0,Calm,Calm,-,N/A,,Overcast,0,2013-01-28 05:53:00
1:53 AM,14.0,3.9,64,30.45,10.0,Calm,Calm,-,N/A,,Overcast,0,2013-01-28 06:53:00
2:53 AM,16.0,5.0,62,30.44,10.0,Calm,Calm,-,N/A,,Overcast,0,2013-01-28 07:53:00
3:53 AM,16.0,5.0,62,30.41,10.0,NE,5.8,-,N/A,,Overcast,50,2013-01-28 08:53:00
4:53 AM,17.1,5.0,59,30.39,10.0,ENE,3.5,-,N/A,,Overcast,60,2013-01-28 09:53:00
5:53 AM,17.1,6.1,62,30.36,10.0,ENE,3.5,-,N/A,,Overcast,70,2013-01-28 10:53:00
6:53 AM,18.0,6.1,60,30.35,10.0,ENE,4.6,-,N/A,,Overcast,70,2013-01-28 11:53:00
7:53 AM,18.0,3.9,54,30.34,10.0,East,3.5,-,N/A,,Overcast,80,2013-01-28 12:53:00
8:53 AM,18.0,3.9,54,30.30,2.0,East,4.6,-,0.00,Snow,Light Snow,80,2013-01-28 13:53:00
8:58 AM,17.6,5.0,58,30.27,1.2,ENE,5.8,-,0.00,Snow,Light Snow,70,2013-01-28 13:58:00
9:34 AM,17.6,8.6,68,30.25,1.8,ENE,8.1,-,0.00,Snow,Light Snow,60,2013-01-28 14:34:00
9:53 AM,18.0,10.0,71,30.27,1.2,ENE,6.9,-,0.00,Snow,Light Snow,60,2013-01-28 14:53:00
10:14 AM,17.6,12.2,79,30.22,0.8,ENE,5.8,-,0.00,Snow,Light Snow,70,2013-01-28 15:14:00
10:53 AM,19.0,14.0,81,30.23,1.0,ENE,9.2,-,0.01,Snow,Light Snow,60,2013-01-28 15:53:00
11:09 AM,19.4,15.8,86,30.18,0.8,ENE,8.1,-,0.00,Snow,Light Snow,60,2013-01-28 16:09:00
11:53 AM,19.9,15.1,81,30.16,0.5,NE,9.2,-,0.01,Snow,Snow,50,2013-01-28 16:53:00
12:33 PM,19.4,15.8,86,30.10,0.2,ENE,10.4,-,0.01,Fog-Snow,Snow,70,2013-01-28 17:33:00
12:53 PM,19.9,17.1,89,30.11,0.2,ENE,9.2,-,0.02,Fog-Snow,Snow,70,2013-01-28 17:53:00
1:00 PM,19.4,15.8,86,30.07,0.5,ENE,8.1,-,0.00,Fog-Snow,Snow,70,2013-01-28 18:00:00
1:17 PM,19.4,15.8,86,30.06,0.2,ENE,11.5,-,0.01,Fog-Snow,Heavy Snow,70,2013-01-28 18:17:00
1:53 PM,19.9,16.0,85,30.07,0.2,ENE,11.5,-,0.04,Fog-Snow,Snow,60,2013-01-28 18:53:00
2:34 PM,19.4,17.6,93,30.02,0.5,ENE,12.7,-,0.03,Fog-Snow,Snow,60,2013-01-28 19:34:00
2:42 PM,19.4,17.6,93,30.01,0.8,ENE,11.5,-,0.03,Snow,Light Snow,60,2013-01-28 19:42:00
2:53 PM,19.9,17.1,89,30.05,0.5,ENE,10.4,-,0.03,Fog-Snow,Snow,60,2013-01-28 19:53:00
3:13 PM,21.2,17.6,86,30.01,1.2,ENE,10.4,-,0.00,Snow,Light Snow,60,2013-01-28 20:13:00
3:43 PM,21.2,17.6,86,30.01,0.8,ENE,8.1,-,0.01,Snow,Light Snow,70,2013-01-28 20:43:00
3:50 PM,21.2,17.6,86,30.00,1.0,ENE,9.2,-,0.01,Snow,Light Snow,70,2013-01-28 20:50:00
3:53 PM,21.9,18.0,85,30.03,1.2,ENE,8.1,-,0.01,Snow,Light Snow,70,2013-01-28 20:53:00
4:01 PM,21.2,17.6,86,30.00,1.8,NE,10.4,-,0.00,Snow,Light Snow,50,2013-01-28 21:01:00
4:07 PM,21.2,17.6,86,30.00,3.0,ENE,8.1,-,0.00,Snow,Light Snow,60,2013-01-28 21:07:00
4:19 PM,21.2,17.6,86,30.00,1.8,ENE,10.4,-,0.00,Snow,Light Snow,60,2013-01-28 21:19:00
4:28 PM,21.2,17.6,86,30.00,1.0,ENE,8.1,-,0.00,Snow,Light Snow,70,2013-01-28 21:28:00
4:40 PM,21.2,19.4,93,29.98,0.8,ENE,10.4,-,0.00,Snow,Light Snow,70,2013-01-28 21:40:00
4:53 PM,21.9,19.0,89,30.00,1.0,ENE,9.2,-,0.00,Snow,Light Snow,60,2013-01-28 21:53:00
5:12 PM,21.2,19.4,93,29.99,2.0,NE,5.8,-,0.00,Snow,Light Snow,50,2013-01-28 22:12:00
5:28 PM,21.2,19.4,93,29.99,2.5,NE,8.1,-,0.00,Snow,Light Snow,50,2013-01-28 22:28:00
5:38 PM,21.2,19.4,93,29.98,3.0,NE,6.9,-,0.00,Snow,Light Snow,50,2013-01-28 22:38:00
5:53 PM,21.9,19.0,89,30.01,2.5,NE,8.1,-,0.00,Snow,Light Snow,50,2013-01-28 22:53:00
5:56 PM,21.2,19.4,93,29.99,1.8,NNE,6.9,-,0.00,Snow,Light Snow,30,2013-01-28 22:56:00
6:05 PM,21.2,19.4,93,29.98,1.0,NE,8.1,-,0.01,Snow,Light Snow,50,2013-01-28 23:05:00
6:19 PM,21.2,19.4,93,29.98,1.0,ENE,9.2,-,0.01,Snow,Light Snow,60,2013-01-28 23:19:00
6:26 PM,21.2,19.4,93,29.98,0.8,NE,8.1,-,0.02,Snow,Light Snow,50,2013-01-28 23:26:00
6:38 PM,21.2,19.4,93,29.98,1.2,NE,8.1,-,0.02,Snow,Light Snow,50,2013-01-28 23:38:00
6:42 PM,21.2,19.4,93,29.98,1.5,NE,9.2,-,0.02,Snow,Light Snow,50,2013-01-28 23:42:00
6:53 PM,21.9,19.0,89,30.01,1.8,NE,8.1,-,0.02,Snow,Light Snow,50,2013-01-28 23:53:00
7:11 PM,21.2,19.4,93,29.98,2.5,ENE,10.4,-,0.00,Snow,Light Snow,60,2013-01-29 00:11:00
7:23 PM,21.2,19.4,93,29.98,1.5,NE,11.5,-,0.00,Snow,Light Snow,50,2013-01-29 00:23:00
7:53 PM,21.9,19.0,89,30.00,2.0,ENE,12.7,-,0.00,Snow,Light Snow,60,2013-01-29 00:53:00
8:04 PM,21.2,17.6,86,29.98,3.0,NNE,11.5,-,0.00,Snow,Light Snow,30,2013-01-29 01:04:00
8:39 PM,19.4,15.8,86,29.99,2.5,NE,9.2,-,0.00,Snow,Light Snow,50,2013-01-29 01:39:00
8:53 PM,19.0,15.1,85,30.01,2.0,NE,11.5,-,0.00,Snow,Light Snow,40,2013-01-29 01:53:00
8:57 PM,19.4,15.8,86,29.99,1.2,NE,10.4,-,0.00,Snow,Light Snow,40,2013-01-29 01:57:00
9:28 PM,17.6,14.0,86,30.00,1.8,NE,13.8,-,0.00,Snow,Light Snow,50,2013-01-29 02:28:00
9:43 PM,17.6,14.0,86,30.00,2.0,NE,12.7,-,0.01,Snow,Light Snow,40,2013-01-29 02:43:00
9:51 PM,17.6,14.0,86,30.00,3.0,NE,9.2,-,0.01,Snow,Light Snow,50,2013-01-29 02:51:00
9:53 PM,18.0,14.0,84,30.03,3.0,NE,9.2,-,0.01,Snow,Light Snow,50,2013-01-29 02:53:00
10:02 PM,17.6,14.0,86,30.01,5.0,NE,8.1,-,0.00,Snow,Light Snow,40,2013-01-29 03:02:00
10:53 PM,18.0,14.0,84,30.04,6.0,ENE,9.2,-,0.00,,Overcast,60,2013-01-29 03:53:00
11:53 PM,18.0,14.0,84,30.06,9.0,NE,8.1,-,N/A,,Overcast,50,2013-01-29 04:53:00